If you wish to contribute or participate in the discussions about articles you are invited to join SKYbrary as a registered user

 Actions

Albury Airport

From SKYbrary Wiki

YMAY
Airport
ICAO: YMAY – IATA: ABX
Summary
Name Albury Airport
Region Asia and Pacific
Territory Australia AU.gif
Location , New South Wales
Serving Albury
Elevation 164.287 m <br />539 ft <br />539 ft164.287 m <br />
Type medium airport
Coordinates 36° 4' 4.01" S, 146° 57' 29.02" E
Runways
Designator Length Width Surface ROPS
7/25 1900 m6,233.596 ft <br /> 30 m98.425 ft <br /> ASP /


METAR
Observation YMAY 241500Z AUTO 15004KT 9999 // NCD 16/13 Q1012
Station Albury Airport
Date/Time 24 February 2021 15:00:00
Wind direction 150°
Wind speed 04 kts
Lowest cloud amount no clouds detected
Temperature 16°C
Dew point 13°C
Humidity 82%
QNH 1012 hPa
Weather condition n/a